Back to Top

Language: 

My Weather Underground Personal Weather Station Historical Data with Graphs...

Delerius Weather Station Historical Data
Daily Summary for September 29, 2017 Units:  English    Metric   Both
« Previous Day
Next Day »
Daily Weekly Monthly Yearly Custom
  High: Low: Average:
Temperature: 63.5 °F 50.0 °F 56.8 °F
Dew Point: 57.6 °F 46.3 °F 52.3 °F
Humidity: 96 % 63 % 85 %
Wind Speed: 11.0 mph 0.0 mph 4.5 mph
Wind Gust: 22.0 mph - -
Wind:- - SSW
Pressure: 29.99 in 29.86 in -
Precipitation: 0.11 in    
Historical Graphs
 
 
Tabular Data for September 29, 2017
Time Temperature Dew Point Pressure Wind Wind Speed Wind Gust Humidity Rainfall Rate (Hourly) solar Conditions
00:01 55.2 °F 51.1 °F 29.99 in SSE 2.0 mph 8.0 mph 86 % 0.00 in 0 W/m2
00:06 55.2 °F 51.1 °F 29.99 in SSW 2.0 mph 7.0 mph 86 % 0.00 in 0 W/m2
00:11 55.2 °F 51.1 °F 29.99 in South 2.0 mph 9.0 mph 86 % 0.00 in 0 W/m2
00:16 55.2 °F 51.1 °F 29.98 in SSE 1.0 mph 9.0 mph 86 % 0.00 in 0 W/m2
00:21 55.2 °F 51.1 °F 29.98 in South 1.0 mph 6.0 mph 86 % 0.00 in 0 W/m2
00:26 55.2 °F 51.1 °F 29.98 in SSE 1.0 mph 6.0 mph 86 % 0.00 in 0 W/m2
00:31 55.2 °F 51.1 °F 29.97 in SSE 1.0 mph 5.0 mph 86 % 0.00 in 0 W/m2
00:36 55.0 °F 51.2 °F 29.97 in SE 1.0 mph 6.0 mph 87 % 0.00 in 0 W/m2
00:41 55.0 °F 51.2 °F 29.97 in ESE 2.0 mph 6.0 mph 87 % 0.00 in 0 W/m2
00:46 55.0 °F 51.5 °F 29.96 in ESE 2.0 mph 7.0 mph 88 % 0.00 in 0 W/m2
00:51 55.0 °F 51.5 °F 29.96 in ESE 2.0 mph 7.0 mph 88 % 0.00 in 0 W/m2
00:56 55.0 °F 51.5 °F 29.96 in ESE 2.0 mph 7.0 mph 88 % 0.00 in 0 W/m2
01:01 55.0 °F 51.5 °F 29.96 in ESE 2.0 mph 6.0 mph 88 % 0.00 in 0 W/m2
01:06 55.0 °F 51.5 °F 29.96 in ESE 1.0 mph 6.0 mph 88 % 0.00 in 0 W/m2
01:11 55.0 °F 51.5 °F 29.95 in East 1.0 mph 4.0 mph 88 % 0.00 in 0 W/m2
01:16 54.9 °F 51.4 °F 29.95 in ESE 1.0 mph 6.0 mph 88 % 0.00 in 0 W/m2
01:21 54.9 °F 51.7 °F 29.95 in SE 2.0 mph 6.0 mph 89 % 0.00 in 0 W/m2
01:26 54.9 °F 51.7 °F 29.95 in SE 3.0 mph 9.0 mph 89 % 0.00 in 0 W/m2
01:31 54.9 °F 51.7 °F 29.95 in SE 5.0 mph 13.0 mph 89 % 0.00 in 0 W/m2
01:36 54.9 °F 51.7 °F 29.95 in SSE 7.0 mph 13.0 mph 89 % 0.00 in 0 W/m2
01:41 54.9 °F 51.7 °F 29.95 in South 7.0 mph 13.0 mph 89 % 0.00 in 0 W/m2
01:46 54.9 °F 52.0 °F 29.95 in South 7.0 mph 13.0 mph 90 % 0.00 in 0 W/m2
01:47 54.9 °F 52.0 °F 29.95 in South 6.0 mph 13.0 mph 90 % 0.00 in 0 W/m2
01:52 54.9 °F 52.0 °F 29.94 in South 7.0 mph 13.0 mph 90 % 0.00 in 0 W/m2
01:57 54.9 °F 51.7 °F 29.94 in South 7.0 mph 13.0 mph 89 % 0.00 in 0 W/m2
02:02 54.9 °F 52.0 °F 29.94 in SSE 6.0 mph 11.0 mph 90 % 0.00 in 0 W/m2
02:07 54.9 °F 52.0 °F 29.94 in South 7.0 mph 12.0 mph 90 % 0.00 in 0 W/m2
02:12 54.9 °F 52.0 °F 29.94 in South 6.0 mph 12.0 mph 90 % 0.00 in 0 W/m2
02:17 54.9 °F 52.0 °F 29.94 in South 6.0 mph 14.0 mph 90 % 0.00 in 0 W/m2
02:22 54.9 °F 52.0 °F 29.94 in South 8.0 mph 14.0 mph 90 % 0.00 in 0 W/m2
02:27 55.0 °F 52.2 °F 29.94 in South 8.0 mph 16.0 mph 90 % 0.00 in 0 W/m2
02:32 55.0 °F 52.2 °F 29.94 in South 8.0 mph 16.0 mph 90 % 0.00 in 0 W/m2
02:37 55.0 °F 52.2 °F 29.93 in South 8.0 mph 15.0 mph 90 % 0.00 in 0 W/m2
02:42 55.0 °F 52.2 °F 29.93 in South 8.0 mph 15.0 mph 90 % 0.00 in 0 W/m2
02:47 55.2 °F 52.3 °F 29.94 in South 9.0 mph 16.0 mph 90 % 0.00 in 0 W/m2
02:52 55.2 °F 52.3 °F 29.93 in South 8.0 mph 16.0 mph 90 % 0.00 in 0 W/m2
02:57 55.4 °F 52.5 °F 29.93 in South 8.0 mph 15.0 mph 90 % 0.00 in 0 W/m2
03:02 55.4 °F 52.5 °F 29.93 in South 8.0 mph 15.0 mph 90 % 0.00 in 0 W/m2
03:07 55.6 °F 52.7 °F 29.93 in South 7.0 mph 13.0 mph 90 % 0.00 in 0 W/m2
03:12 55.6 °F 52.7 °F 29.92 in South 7.0 mph 12.0 mph 90 % 0.00 in 0 W/m2
03:17 55.6 °F 53.0 °F 29.92 in South 5.0 mph 10.0 mph 91 % 0.00 in 0 W/m2
03:22 55.6 °F 53.0 °F 29.92 in South 5.0 mph 12.0 mph 91 % 0.00 in 0 W/m2
03:27 55.6 °F 53.0 °F 29.92 in SSE 5.0 mph 12.0 mph 91 % 0.00 in 0 W/m2
03:32 55.6 °F 53.0 °F 29.92 in South 6.0 mph 13.0 mph 91 % 0.00 in 0 W/m2
03:37 55.6 °F 53.0 °F 29.91 in South 6.0 mph 13.0 mph 91 % 0.00 in 0 W/m2
03:42 55.6 °F 53.3 °F 29.91 in South 4.0 mph 9.0 mph 92 % 0.00 in 0 W/m2
03:47 55.6 °F 53.3 °F 29.91 in South 5.0 mph 11.0 mph 92 % 0.00 in 0 W/m2
03:52 55.6 °F 53.3 °F 29.91 in South 5.0 mph 11.0 mph 92 % 0.00 in 0 W/m2
03:57 55.6 °F 53.3 °F 29.91 in South 6.0 mph 11.0 mph 92 % 0.00 in 0 W/m2
04:02 55.6 °F 53.6 °F 29.91 in South 6.0 mph 11.0 mph 93 % 0.00 in 0 W/m2
04:08 55.6 °F 53.6 °F 29.91 in SSE 5.0 mph 9.0 mph 93 % 0.00 in 0 W/m2
04:13 55.6 °F 53.6 °F 29.91 in SSE 5.0 mph 11.0 mph 93 % 0.00 in 0 W/m2
04:18 55.6 °F 53.6 °F 29.91 in South 4.0 mph 11.0 mph 93 % 0.00 in 0 W/m2
04:23 55.8 °F 54.1 °F 29.90 in South 4.0 mph 8.0 mph 94 % 0.00 in 0 W/m2
04:24 55.6 °F 53.9 °F 29.90 in South 3.0 mph 8.0 mph 94 % 0.00 in 0 W/m2
04:25 55.8 °F 54.1 °F 29.90 in South 3.0 mph 8.0 mph 94 % 0.00 in 0 W/m2
04:28 55.8 °F 54.1 °F 29.90 in South 3.0 mph 7.0 mph 94 % 0.00 in 0 W/m2
04:29 55.8 °F 54.1 °F 29.90 in South 3.0 mph 7.0 mph 94 % 0.00 in 0 W/m2
04:33 55.8 °F 54.1 °F 29.90 in SSE 2.0 mph 7.0 mph 94 % 0.00 in 0 W/m2
04:38 55.8 °F 54.1 °F 29.90 in South 2.0 mph 7.0 mph 94 % 0.00 in 0 W/m2
04:39 55.8 °F 54.1 °F 29.90 in South 2.0 mph 7.0 mph 94 % 0.00 in 0 W/m2
04:44 55.8 °F 54.1 °F 29.90 in SSE 4.0 mph 7.0 mph 94 % 0.00 in 0 W/m2
04:49 55.8 °F 54.1 °F 29.90 in SSE 4.0 mph 7.0 mph 94 % 0.00 in 0 W/m2
04:54 55.8 °F 54.1 °F 29.90 in SSE 4.0 mph 7.0 mph 94 % 0.00 in 0 W/m2
04:59 55.8 °F 54.1 °F 29.90 in South 4.0 mph 8.0 mph 94 % 0.00 in 0 W/m2
05:04 55.9 °F 54.5 °F 29.89 in South 3.0 mph 8.0 mph 95 % 0.00 in 0 W/m2
05:09 55.9 °F 54.5 °F 29.89 in South 4.0 mph 11.0 mph 95 % 0.00 in 0 W/m2
05:14 56.1 °F 54.7 °F 29.89 in South 6.0 mph 11.0 mph 95 % 0.00 in 0 W/m2
05:19 56.1 °F 54.7 °F 29.89 in South 5.0 mph 11.0 mph 95 % 0.00 in 0 W/m2
05:24 56.1 °F 54.7 °F 29.88 in SSE 3.0 mph 7.0 mph 95 % 0.00 in 0 W/m2
05:29 56.3 °F 54.9 °F 29.88 in SE 3.0 mph 8.0 mph 95 % 0.00 in 0 W/m2
05:34 56.3 °F 54.9 °F 29.87 in ESE 4.0 mph 8.0 mph 95 % 0.00 in 0 W/m2
05:39 56.1 °F 54.7 °F 29.87 in East 4.0 mph 8.0 mph 95 % 0.00 in 0 W/m2
05:44 56.3 °F 54.9 °F 29.88 in ENE 3.0 mph 6.0 mph 95 % 0.00 in 0 W/m2
05:49 56.3 °F 54.9 °F 29.88 in ENE 3.0 mph 6.0 mph 95 % 0.00 in 0 W/m2
05:54 56.5 °F 55.1 °F 29.88 in ENE 2.0 mph 6.0 mph 95 % 0.00 in 0 W/m2
05:59 56.5 °F 55.1 °F 29.88 in ENE 2.0 mph 7.0 mph 95 % 0.00 in 0 W/m2
06:04 56.5 °F 55.1 °F 29.87 in ENE 2.0 mph 7.0 mph 95 % 0.00 in 0 W/m2
06:09 56.7 °F 55.2 °F 29.87 in East 3.0 mph 7.0 mph 95 % 0.00 in 0 W/m2
06:14 56.7 °F 55.2 °F 29.86 in East 4.0 mph 8.0 mph 95 % 0.00 in 0 W/m2
06:19 56.7 °F 55.2 °F 29.88 in ESE 3.0 mph 8.0 mph 95 % 0.00 in 0 W/m2
06:24 56.8 °F 55.4 °F 29.88 in SE 2.0 mph 7.0 mph 95 % 0.00 in 0 W/m2
06:29 56.8 °F 55.4 °F 29.88 in South 2.0 mph 6.0 mph 95 % 0.00 in 0 W/m2
06:34 57.0 °F 55.6 °F 29.88 in SSW 2.0 mph 6.0 mph 95 % 0.00 in 0 W/m2
06:39 57.0 °F 55.6 °F 29.88 in South 2.0 mph 6.0 mph 95 % 0.00 in 0 W/m2
06:44 57.0 °F 55.6 °F 29.89 in SSE 2.0 mph 6.0 mph 95 % 0.00 in 0 W/m2
06:49 57.2 °F 56.1 °F 29.89 in SSE 1.0 mph 5.0 mph 96 % 0.00 in 0 W/m2
06:54 57.2 °F 56.1 °F 29.89 in South 2.0 mph 7.0 mph 96 % 0.00 in 0 W/m2
06:59 57.4 °F 56.2 °F 29.89 in SSE 5.0 mph 9.0 mph 96 % 0.00 in 0 W/m2
07:04 57.4 °F 56.2 °F 29.88 in SSE 6.0 mph 9.0 mph 96 % 0.00 in 0 W/m2
07:09 57.6 °F 56.4 °F 29.88 in SE 4.0 mph 8.0 mph 96 % 0.00 in 0 W/m2
07:14 57.6 °F 56.4 °F 29.88 in SE 3.0 mph 8.0 mph 96 % 0.00 in 0 W/m2
07:19 57.6 °F 56.4 °F 29.88 in SE 3.0 mph 8.0 mph 96 % 0.00 in 0 W/m2
07:24 57.7 °F 56.6 °F 29.88 in SSE 4.0 mph 8.0 mph 96 % 0.00 in 5 W/m2
07:30 57.7 °F 56.6 °F 29.88 in SSE 5.0 mph 8.0 mph 96 % 0.00 in 5 W/m2
07:35 57.7 °F 56.6 °F 29.88 in SSE 5.0 mph 8.0 mph 96 % 0.00 in 9 W/m2
07:40 57.7 °F 56.6 °F 29.87 in SSE 4.0 mph 8.0 mph 96 % 0.00 in 14 W/m2
07:45 57.7 °F 56.6 °F 29.88 in SE 3.0 mph 8.0 mph 96 % 0.00 in 18 W/m2
07:50 57.7 °F 56.6 °F 29.87 in SE 3.0 mph 7.0 mph 96 % 0.00 in 16 W/m2
07:55 57.9 °F 56.8 °F 29.88 in SSE 3.0 mph 7.0 mph 96 % 0.00 in 18 W/m2
08:00 57.9 °F 56.8 °F 29.88 in South 3.0 mph 7.0 mph 96 % 0.00 in 28 W/m2
08:05 57.9 °F 56.8 °F 29.88 in South 4.0 mph 9.0 mph 96 % 0.00 in 26 W/m2
08:10 58.1 °F 57.0 °F 29.88 in SSW 5.0 mph 9.0 mph 96 % 0.00 in 23 W/m2
08:15 58.3 °F 57.1 °F 29.88 in SSW 5.0 mph 7.0 mph 96 % 0.00 in 21 W/m2
08:20 58.3 °F 57.1 °F 29.88 in South 5.0 mph 8.0 mph 96 % 0.00 in 30 W/m2
08:25 58.3 °F 57.1 °F 29.88 in South 5.0 mph 9.0 mph 96 % 0.00 in 40 W/m2
08:30 58.5 °F 57.3 °F 29.88 in South 5.0 mph 9.0 mph 96 % 0.00 in 58 W/m2
08:35 58.5 °F 57.3 °F 29.87 in South 4.0 mph 9.0 mph 96 % 0.00 in 70 W/m2
08:40 58.6 °F 57.5 °F 29.88 in South 4.0 mph 9.0 mph 96 % 0.00 in 47 W/m2
08:45 58.6 °F 57.5 °F 29.88 in South 5.0 mph 9.0 mph 96 % 0.00 in 28 W/m2
08:50 58.6 °F 57.5 °F 29.88 in South 7.0 mph 12.0 mph 96 % 0.00 in 19 W/m2
08:55 58.8 °F 57.4 °F 29.88 in South 6.0 mph 12.0 mph 95 % 0.00 in 19 W/m2
09:00 58.8 °F 57.4 °F 29.88 in SSE 5.0 mph 11.0 mph 95 % 0.00 in 19 W/m2
09:05 59.0 °F 57.6 °F 29.88 in SSE 5.0 mph 11.0 mph 95 % 0.00 in 26 W/m2
09:10 59.0 °F 57.6 °F 29.88 in SSW 5.0 mph 10.0 mph 95 % 0.01 in 26 W/m2
09:15 58.8 °F 57.1 °F 29.88 in SSW 4.0 mph 10.0 mph 94 % 0.02 in 18 W/m2
09:20 58.8 °F 57.1 °F 29.88 in SSW 5.0 mph 11.0 mph 94 % 0.02 in 25 W/m2
09:25 58.8 °F 57.1 °F 29.88 in SSW 7.0 mph 14.0 mph 94 % 0.03 in 30 W/m2
09:30 58.6 °F 56.9 °F 29.89 in SSW 7.0 mph 14.0 mph 94 % 0.04 in 28 W/m2
09:35 58.6 °F 56.9 °F 29.89 in SSW 6.0 mph 13.0 mph 94 % 0.05 in 33 W/m2
09:40 58.6 °F 56.9 °F 29.89 in SSW 5.0 mph 8.0 mph 94 % 0.05 in 49 W/m2
09:45 58.6 °F 56.9 °F 29.88 in SSW 4.0 mph 8.0 mph 94 % 0.06 in 58 W/m2
09:50 58.8 °F 57.1 °F 29.90 in SW 5.0 mph 11.0 mph 94 % 0.06 in 14 W/m2
09:55 57.6 °F 55.3 °F 29.90 in West 9.0 mph 20.0 mph 92 % 0.06 in 12 W/m2
10:00 56.5 °F 54.2 °F 29.91 in West 11.0 mph 20.0 mph 92 % 0.06 in 19 W/m2
10:05 55.9 °F 53.9 °F 29.90 in West 7.0 mph 16.0 mph 93 % 0.07 in 39 W/m2
10:10 55.8 °F 53.8 °F 29.90 in West 3.0 mph 10.0 mph 93 % 0.07 in 53 W/m2
10:15 55.8 °F 54.1 °F 29.89 in West 2.0 mph 7.0 mph 94 % 0.07 in 60 W/m2
10:20 55.6 °F 53.9 °F 29.89 in WNW 2.0 mph 6.0 mph 94 % 0.06 in 47 W/m2
10:25 55.6 °F 53.9 °F 29.89 in WNW 2.0 mph 6.0 mph 94 % 0.06 in 51 W/m2
10:30 55.6 °F 53.9 °F 29.89 in WNW 2.0 mph 5.0 mph 94 % 0.05 in 47 W/m2
10:35 55.4 °F 53.7 °F 29.89 in WNW 3.0 mph 7.0 mph 94 % 0.05 in 44 W/m2
10:40 55.2 °F 53.5 °F 29.89 in WNW 4.0 mph 7.0 mph 94 % 0.05 in 54 W/m2
10:45 55.2 °F 53.5 °F 29.89 in WNW 4.0 mph 7.0 mph 94 % 0.04 in 90 W/m2
10:50 55.2 °F 53.5 °F 29.89 in West 3.0 mph 8.0 mph 94 % 0.04 in 90 W/m2
10:55 55.2 °F 53.5 °F 29.89 in West 3.0 mph 8.0 mph 94 % 0.03 in 76 W/m2
11:00 55.2 °F 53.5 °F 29.89 in West 3.0 mph 7.0 mph 94 % 0.02 in 88 W/m2
11:05 55.2 °F 53.5 °F 29.89 in West 2.0 mph 6.0 mph 94 % 0.02 in 76 W/m2
11:10 55.4 °F 53.7 °F 29.89 in West 1.0 mph 6.0 mph 94 % 0.02 in 84 W/m2
11:15 55.6 °F 53.9 °F 29.89 in WNW 1.0 mph 5.0 mph 94 % 0.02 in 90 W/m2
11:20 55.6 °F 53.9 °F 29.89 in WNW 1.0 mph 5.0 mph 94 % 0.02 in 81 W/m2
11:25 55.6 °F 53.9 °F 29.90 in West 2.0 mph 6.0 mph 94 % 0.02 in 60 W/m2
11:30 55.4 °F 53.7 °F 29.90 in West 3.0 mph 7.0 mph 94 % 0.01 in 63 W/m2
11:31 55.4 °F 53.7 °F 29.90 in West 3.0 mph 7.0 mph 94 % 0.01 in 63 W/m2
11:36 55.4 °F 53.7 °F 29.90 in West 2.0 mph 7.0 mph 94 % 0.01 in 88 W/m2
11:41 55.6 °F 53.9 °F 29.89 in WNW 1.0 mph 5.0 mph 94 % 0.01 in 86 W/m2
11:46 55.6 °F 53.9 °F 29.90 in WNW 1.0 mph 4.0 mph 94 % 0.01 in 88 W/m2
11:51 55.6 °F 53.9 °F 29.90 in Calm   4.0 mph 94 % 0.01 in 128 W/m2
11:56 55.8 °F 54.1 °F 29.90 in Calm   2.0 mph 94 % 0.01 in 151 W/m2
12:01 56.1 °F 54.4 °F 29.90 in Calm   2.0 mph 94 % 0.01 in 149 W/m2
12:06 56.1 °F 54.1 °F 29.90 in Calm   1.0 mph 93 % 0.01 in 144 W/m2
12:11 56.3 °F 54.3 °F 29.90 in Calm   2.0 mph 93 % 0.00 in 202 W/m2
12:16 56.7 °F 54.7 °F 29.89 in SW 2.0 mph 7.0 mph 93 % 0.00 in 329 W/m2
12:21 57.0 °F 55.0 °F 29.89 in SW 3.0 mph 7.0 mph 93 % 0.00 in 230 W/m2
12:26 57.0 °F 54.7 °F 29.89 in SSW 4.0 mph 8.0 mph 92 % 0.00 in 236 W/m2
12:31 57.2 °F 54.9 °F 29.89 in SSW 5.0 mph 10.0 mph 92 % 0.00 in 234 W/m2
12:36 57.4 °F 54.8 °F 29.89 in SSW 5.0 mph 10.0 mph 91 % 0.00 in 237 W/m2
12:41 57.6 °F 54.6 °F 29.90 in SSW 4.0 mph 7.0 mph 90 % 0.00 in 279 W/m2
12:46 57.7 °F 54.8 °F 29.89 in SSW 4.0 mph 7.0 mph 90 % 0.00 in 425 W/m2
12:51 58.3 °F 55.7 °F 29.89 in SW 3.0 mph 7.0 mph 91 % 0.00 in 227 W/m2
12:56 58.6 °F 55.4 °F 29.90 in SSW 4.0 mph 9.0 mph 89 % 0.00 in 204 W/m2
13:01 59.2 °F 56.2 °F 29.90 in SSW 6.0 mph 12.0 mph 90 % 0.00 in 216 W/m2
13:06 59.4 °F 55.8 °F 29.90 in SSW 6.0 mph 12.0 mph 88 % 0.00 in 209 W/m2
13:11 59.5 °F 55.7 °F 29.89 in SW 5.0 mph 9.0 mph 87 % 0.00 in 169 W/m2
13:16 59.5 °F 54.4 °F 29.89 in WSW 6.0 mph 14.0 mph 83 % 0.00 in 220 W/m2
13:21 59.5 °F 54.0 °F 29.89 in WSW 8.0 mph 14.0 mph 82 % 0.00 in 221 W/m2
13:26 59.5 °F 54.0 °F 29.90 in WSW 8.0 mph 16.0 mph 82 % 0.00 in 323 W/m2
13:31 59.9 °F 54.1 °F 29.89 in WSW 8.0 mph 16.0 mph 81 % 0.00 in 381 W/m2
13:36 60.3 °F 54.1 °F 29.89 in WSW 8.0 mph 14.0 mph 80 % 0.00 in 295 W/m2
13:41 60.6 °F 54.1 °F 29.89 in WSW 8.0 mph 14.0 mph 79 % 0.00 in 647 W/m2
13:46 61.2 °F 53.9 °F 29.89 in WSW 9.0 mph 15.0 mph 77 % 0.00 in 617 W/m2
13:51 61.9 °F 54.2 °F 29.89 in WSW 9.0 mph 15.0 mph 76 % 0.00 in 408 W/m2
13:56 62.2 °F 53.8 °F 29.89 in WSW 8.0 mph 15.0 mph 74 % 0.00 in 482 W/m2
14:01 62.4 °F 53.6 °F 29.89 in WSW 8.0 mph 15.0 mph 73 % 0.00 in 381 W/m2
14:06 62.6 °F 53.8 °F 29.89 in WSW 8.0 mph 15.0 mph 73 % 0.00 in 290 W/m2
14:07 62.6 °F 54.2 °F 29.89 in WSW 8.0 mph 15.0 mph 74 % 0.00 in 399 W/m2
14:12 62.8 °F 54.4 °F 29.90 in WSW 7.0 mph 14.0 mph 74 % 0.00 in 207 W/m2
14:17 62.4 °F 54.4 °F 29.90 in SW 7.0 mph 14.0 mph 75 % 0.00 in 141 W/m2
14:22 62.2 °F 54.6 °F 29.89 in WSW 6.0 mph 12.0 mph 76 % 0.00 in 155 W/m2
14:27 62.1 °F 54.4 °F 29.89 in West 5.0 mph 8.0 mph 76 % 0.00 in 234 W/m2
14:32 62.1 °F 54.4 °F 29.89 in WNW 6.0 mph 12.0 mph 76 % 0.00 in 102 W/m2
14:37 61.3 °F 54.1 °F 29.90 in West 9.0 mph 18.0 mph 77 % 0.00 in 79 W/m2
14:42 60.3 °F 53.7 °F 29.89 in West 9.0 mph 18.0 mph 79 % 0.01 in 135 W/m2
14:47 59.5 °F 53.4 °F 29.89 in West 7.0 mph 11.0 mph 80 % 0.01 in 158 W/m2
14:48 59.4 °F 53.2 °F 29.89 in West 7.0 mph 11.0 mph 80 % 0.01 in 158 W/m2
14:53 59.2 °F 53.4 °F 29.89 in West 6.0 mph 11.0 mph 81 % 0.01 in 218 W/m2
14:58 59.2 °F 53.7 °F 29.89 in WSW 5.0 mph 9.0 mph 82 % 0.01 in 186 W/m2
15:03 59.5 °F 54.7 °F 29.89 in WSW 5.0 mph 9.0 mph 84 % 0.01 in 496 W/m2
15:08 60.1 °F 55.2 °F 29.89 in WSW 6.0 mph 9.0 mph 84 % 0.01 in 490 W/m2
15:13 60.6 °F 55.8 °F 29.89 in WSW 6.0 mph 11.0 mph 84 % 0.01 in 482 W/m2
15:18 61.2 °F 55.6 °F 29.90 in WSW 6.0 mph 11.0 mph 82 % 0.01 in 469 W/m2
15:23 61.7 °F 55.5 °F 29.90 in WSW 7.0 mph 11.0 mph 80 % 0.01 in 466 W/m2
15:28 62.2 °F 54.9 °F 29.90 in WSW 7.0 mph 13.0 mph 77 % 0.01 in 508 W/m2
15:33 62.8 °F 54.7 °F 29.90 in WSW 8.0 mph 16.0 mph 75 % 0.01 in 452 W/m2
15:38 63.0 °F 53.0 °F 29.90 in SW 10.0 mph 16.0 mph 70 % 0.00 in 438 W/m2
15:43 63.1 °F 53.2 °F 29.90 in SW 10.0 mph 16.0 mph 70 % 0.00 in 439 W/m2
15:48 63.5 °F 52.7 °F 29.90 in SW 9.0 mph 16.0 mph 68 % 0.00 in 422 W/m2
15:53 63.5 °F 52.3 °F 29.90 in WSW 9.0 mph 16.0 mph 67 % 0.00 in 171 W/m2
15:58 63.3 °F 53.0 °F 29.90 in WSW 9.0 mph 16.0 mph 69 % 0.00 in 396 W/m2
16:03 63.3 °F 53.0 °F 29.90 in WSW 9.0 mph 16.0 mph 69 % 0.00 in 410 W/m2
16:04 63.3 °F 53.0 °F 29.90 in WSW 9.0 mph 16.0 mph 69 % 0.00 in 410 W/m2
16:09 63.3 °F 53.0 °F 29.90 in WSW 8.0 mph 13.0 mph 69 % 0.00 in 130 W/m2
16:14 63.1 °F 52.8 °F 29.90 in WSW 7.0 mph 13.0 mph 69 % 0.00 in 350 W/m2
16:19 63.1 °F 52.4 °F 29.90 in WSW 9.0 mph 16.0 mph 68 % 0.00 in 262 W/m2
16:24 63.0 °F 50.6 °F 29.90 in SW 10.0 mph 19.0 mph 64 % 0.00 in 285 W/m2
16:29 63.0 °F 50.2 °F 29.90 in SW 10.0 mph 19.0 mph 63 % 0.00 in 139 W/m2
16:34 62.8 °F 50.8 °F 29.90 in SW 9.0 mph 16.0 mph 65 % 0.00 in 251 W/m2
16:39 63.0 °F 50.6 °F 29.90 in WSW 8.0 mph 15.0 mph 64 % 0.00 in 251 W/m2
16:44 63.0 °F 50.2 °F 29.90 in WSW 8.0 mph 15.0 mph 63 % 0.00 in 116 W/m2
16:49 62.6 °F 49.8 °F 29.90 in WSW 8.0 mph 14.0 mph 63 % 0.00 in 97 W/m2
16:54 62.2 °F 49.9 °F 29.90 in WSW 8.0 mph 14.0 mph 64 % 0.00 in 93 W/m2
16:59 61.9 °F 50.0 °F 29.90 in WSW 7.0 mph 14.0 mph 65 % 0.00 in 95 W/m2
17:04 61.5 °F 49.6 °F 29.90 in WSW 7.0 mph 14.0 mph 65 % 0.00 in 79 W/m2
17:09 61.3 °F 49.9 °F 29.90 in WSW 7.0 mph 11.0 mph 66 % 0.00 in 72 W/m2
17:14 61.3 °F 50.3 °F 29.91 in WSW 7.0 mph 12.0 mph 67 % 0.00 in 77 W/m2
17:19 61.2 °F 50.5 °F 29.91 in WSW 6.0 mph 12.0 mph 68 % 0.00 in 84 W/m2
17:24 61.0 °F 50.7 °F 29.91 in WSW 6.0 mph 10.0 mph 69 % 0.00 in 74 W/m2
17:29 60.8 °F 49.8 °F 29.91 in SW 9.0 mph 22.0 mph 67 % 0.00 in 63 W/m2
17:34 60.4 °F 49.4 °F 29.91 in SW 10.0 mph 22.0 mph 67 % 0.00 in 54 W/m2
17:39 60.3 °F 48.4 °F 29.91 in WSW 10.0 mph 21.0 mph 65 % 0.00 in 40 W/m2
17:44 60.1 °F 48.3 °F 29.91 in WSW 10.0 mph 21.0 mph 65 % 0.00 in 33 W/m2
17:49 59.5 °F 47.8 °F 29.91 in WSW 9.0 mph 14.0 mph 65 % 0.00 in 62 W/m2
17:54 59.5 °F 48.2 °F 29.91 in WSW 8.0 mph 14.0 mph 66 % 0.00 in 39 W/m2
17:59 59.2 °F 48.2 °F 29.91 in WSW 7.0 mph 11.0 mph 67 % 0.00 in 39 W/m2
18:04 59.0 °F 48.1 °F 29.91 in SW 7.0 mph 11.0 mph 67 % 0.00 in 33 W/m2
18:09 58.6 °F 48.1 °F 29.91 in SW 7.0 mph 13.0 mph 68 % 0.00 in 26 W/m2
18:14 58.5 °F 47.9 °F 29.91 in SW 7.0 mph 13.0 mph 68 % 0.00 in 23 W/m2
18:19 58.1 °F 47.6 °F 29.91 in WSW 6.0 mph 10.0 mph 68 % 0.00 in 21 W/m2
18:24 57.9 °F 47.4 °F 29.92 in WSW 6.0 mph 10.0 mph 68 % 0.00 in 16 W/m2
18:29 57.7 °F 47.6 °F 29.91 in WSW 6.0 mph 10.0 mph 69 % 0.00 in 12 W/m2
18:34 57.6 °F 47.8 °F 29.91 in WSW 5.0 mph 10.0 mph 70 % 0.00 in 9 W/m2
18:39 57.2 °F 47.5 °F 29.92 in WSW 4.0 mph 9.0 mph 70 % 0.00 in 9 W/m2
18:44 57.0 °F 47.7 °F 29.92 in SW 4.0 mph 9.0 mph 71 % 0.00 in 7 W/m2
18:49 56.8 °F 47.9 °F 29.92 in SW 5.0 mph 9.0 mph 72 % 0.00 in 0 W/m2
18:50 56.8 °F 47.9 °F 29.92 in SW 5.0 mph 9.0 mph 72 % 0.00 in 0 W/m2
18:55 56.5 °F 47.9 °F 29.92 in SW 4.0 mph 7.0 mph 73 % 0.00 in 0 W/m2
19:00 56.3 °F 48.1 °F 29.92 in SW 3.0 mph 7.0 mph 74 % 0.00 in 0 W/m2
19:05 56.1 °F 47.9 °F 29.92 in SW 3.0 mph 7.0 mph 74 % 0.00 in 0 W/m2
19:10 55.9 °F 48.1 °F 29.92 in SW 2.0 mph 6.0 mph 75 % 0.00 in 0 W/m2
19:15 55.9 °F 48.1 °F 29.92 in SSW 1.0 mph 5.0 mph 75 % 0.00 in 0 W/m2
19:20 55.6 °F 48.1 °F 29.92 in South 1.0 mph 5.0 mph 76 % 0.00 in 0 W/m2
19:25 55.4 °F 48.0 °F 29.93 in South 2.0 mph 5.0 mph 76 % 0.00 in 0 W/m2
19:30 55.2 °F 48.1 °F 29.93 in SSW 3.0 mph 7.0 mph 77 % 0.00 in 0 W/m2
19:35 55.2 °F 48.1 °F 29.93 in SW 3.0 mph 7.0 mph 77 % 0.00 in 0 W/m2
19:40 55.0 °F 48.0 °F 29.93 in SW 2.0 mph 6.0 mph 77 % 0.00 in 0 W/m2
19:45 55.0 °F 48.0 °F 29.93 in SW 1.0 mph 6.0 mph 77 % 0.00 in 0 W/m2
19:50 54.9 °F 47.8 °F 29.93 in West 1.0 mph 5.0 mph 77 % 0.00 in 0 W/m2
19:55 54.9 °F 48.1 °F 29.93 in West 1.0 mph 5.0 mph 78 % 0.00 in 0 W/m2
20:00 54.9 °F 48.1 °F 29.93 in WSW 1.0 mph 6.0 mph 78 % 0.00 in 0 W/m2
20:05 54.9 °F 48.1 °F 29.93 in SW 1.0 mph 6.0 mph 78 % 0.00 in 0 W/m2
20:10 54.9 °F 48.1 °F 29.93 in SW 2.0 mph 6.0 mph 78 % 0.00 in 0 W/m2
20:15 54.9 °F 48.1 °F 29.93 in SW 2.0 mph 6.0 mph 78 % 0.00 in 0 W/m2
20:20 54.7 °F 48.3 °F 29.93 in SSW 1.0 mph 6.0 mph 79 % 0.00 in 0 W/m2
20:25 54.7 °F 48.3 °F 29.93 in SW 2.0 mph 9.0 mph 79 % 0.00 in 0 W/m2
20:30 54.7 °F 48.3 °F 29.93 in SW 3.0 mph 9.0 mph 79 % 0.00 in 0 W/m2
20:36 54.7 °F 48.3 °F 29.93 in SW 2.0 mph 7.0 mph 79 % 0.00 in 0 W/m2
20:41 54.5 °F 48.1 °F 29.94 in Calm   4.0 mph 79 % 0.00 in 0 W/m2
20:46 54.3 °F 48.3 °F 29.94 in Calm   1.0 mph 80 % 0.00 in 0 W/m2
20:51 54.0 °F 47.9 °F 29.94 in Calm   1.0 mph 80 % 0.00 in 0 W/m2
20:56 53.8 °F 48.1 °F 29.94 in Calm   1.0 mph 81 % 0.00 in 0 W/m2
21:01 53.4 °F 48.1 °F 29.94 in Calm   3.0 mph 82 % 0.00 in 0 W/m2
21:06 53.2 °F 47.9 °F 29.94 in SSW 1.0 mph 5.0 mph 82 % 0.00 in 0 W/m2
21:11 53.1 °F 47.4 °F 29.94 in South 2.0 mph 7.0 mph 81 % 0.00 in 0 W/m2
21:16 53.2 °F 47.6 °F 29.94 in SSW 3.0 mph 7.0 mph 81 % 0.00 in 0 W/m2
21:21 53.2 °F 47.6 °F 29.94 in SSW 2.0 mph 6.0 mph 81 % 0.00 in 0 W/m2
21:26 53.1 °F 47.4 °F 29.94 in SSW 2.0 mph 4.0 mph 81 % 0.00 in 0 W/m2
21:31 53.1 °F 47.4 °F 29.95 in SW 2.0 mph 8.0 mph 81 % 0.00 in 0 W/m2
21:36 53.1 °F 47.1 °F 29.95 in SW 3.0 mph 8.0 mph 80 % 0.00 in 0 W/m2
21:41 53.2 °F 47.2 °F 29.95 in SW 4.0 mph 8.0 mph 80 % 0.00 in 0 W/m2
21:46 53.2 °F 47.2 °F 29.94 in WSW 5.0 mph 9.0 mph 80 % 0.00 in 0 W/m2
21:51 53.2 °F 47.2 °F 29.94 in WSW 6.0 mph 9.0 mph 80 % 0.00 in 0 W/m2
21:56 53.2 °F 47.2 °F 29.94 in WSW 6.0 mph 9.0 mph 80 % 0.00 in 0 W/m2
22:01 53.2 °F 47.2 °F 29.94 in WSW 5.0 mph 9.0 mph 80 % 0.00 in 0 W/m2
22:06 53.1 °F 47.4 °F 29.94 in WSW 5.0 mph 8.0 mph 81 % 0.00 in 0 W/m2
22:11 52.9 °F 47.2 °F 29.94 in SW 4.0 mph 8.0 mph 81 % 0.00 in 0 W/m2
22:16 52.7 °F 47.4 °F 29.94 in SW 3.0 mph 6.0 mph 82 % 0.00 in 0 W/m2
22:21 52.5 °F 47.2 °F 29.94 in SW 2.0 mph 6.0 mph 82 % 0.00 in 0 W/m2
22:26 52.5 °F 47.5 °F 29.94 in SW 2.0 mph 5.0 mph 83 % 0.00 in 0 W/m2
22:31 52.3 °F 47.3 °F 29.94 in SW 3.0 mph 7.0 mph 83 % 0.00 in 0 W/m2
22:36 52.3 °F 47.3 °F 29.94 in SW 2.0 mph 7.0 mph 83 % 0.00 in 0 W/m2
22:41 52.2 °F 47.5 °F 29.94 in SW 2.0 mph 7.0 mph 84 % 0.00 in 0 W/m2
22:46 52.0 °F 47.3 °F 29.95 in SW 3.0 mph 7.0 mph 84 % 0.00 in 0 W/m2
22:51 51.8 °F 47.1 °F 29.94 in SW 4.0 mph 6.0 mph 84 % 0.00 in 0 W/m2
22:56 51.6 °F 47.3 °F 29.95 in SW 3.0 mph 6.0 mph 85 % 0.00 in 0 W/m2
23:01 51.4 °F 47.1 °F 29.95 in SW 3.0 mph 6.0 mph 85 % 0.00 in 0 W/m2
23:06 51.1 °F 46.7 °F 29.95 in SW 3.0 mph 5.0 mph 85 % 0.00 in 0 W/m2
23:11 51.1 °F 47.0 °F 29.95 in SW 4.0 mph 8.0 mph 86 % 0.00 in 0 W/m2
23:16 50.7 °F 46.7 °F 29.95 in SW 4.0 mph 8.0 mph 86 % 0.00 in 0 W/m2
23:21 50.5 °F 46.5 °F 29.95 in SW 3.0 mph 6.0 mph 86 % 0.00 in 0 W/m2
23:26 50.4 °F 46.3 °F 29.95 in WSW 4.0 mph 7.0 mph 86 % 0.00 in 0 W/m2
23:31 50.2 °F 46.5 °F 29.95 in WSW 5.0 mph 8.0 mph 87 % 0.00 in 0 W/m2
23:36 50.2 °F 46.5 °F 29.96 in SW 4.0 mph 8.0 mph 87 % 0.00 in 0 W/m2
23:41 50.2 °F 46.5 °F 29.95 in SW 4.0 mph 8.0 mph 87 % 0.00 in 0 W/m2
23:46 50.2 °F 46.5 °F 29.95 in SW 4.0 mph 7.0 mph 87 % 0.00 in 0 W/m2
23:51 50.0 °F 46.3 °F 29.95 in SW 4.0 mph 7.0 mph 87 % 0.00 in 0 W/m2
23:56 50.0 °F 46.3 °F 29.95 in SW 4.0 mph 7.0 mph 87 % 0.00 in 0 W/m2
Delerius-Weather
Compliments of Weather Underground - 2.25 mb

Data updates at regular intervals.